This is the latest recevied weather packets stored in our database for station/object KJ5FA-10. If no packets are shown the sender has not sent any weather packets the latest 10 day(s).
| Time | Temp. | Humidity | Pressure | Rain* | Wind** | Luminosity | Snow |
|---|---|---|---|---|---|---|---|
| 1777650876 | 17.22° C | 55% | 1019.5 hPa | 0 mm | - | - | - |
| 1777649975 | 16.67° C | 58% | 1019.3 hPa | 0 mm | - | - | - |
| 1777649075 | 16.11° C | 63% | 1019.4 hPa | 0 mm | - | - | - |
| 1777648175 | 16.11° C | 66% | 1019.3 hPa | 0 mm | - | - | - |
| 1777647275 | 15.56° C | 67% | 1019.3 hPa | 0 mm | - | - | - |
| 1777646375 | 15.56° C | 66% | 1019.6 hPa | 0 mm | - | - | - |
| 1777645476 | 15° C | 69% | 1019.4 hPa | 0 mm | - | - | - |
| 1777644576 | 15° C | 69% | 1019.3 hPa | 0 mm | - | - | - |
| 1777643675 | 14.44° C | 71% | 1019.1 hPa | 0 mm | - | - | - |
| 1777640975 | 12.22° C | 78% | 1018.9 hPa | 0 mm | - | - | - |
| 1777640075 | 12.22° C | 78% | 1019.4 hPa | 0 mm | - | - | - |
| 1777639181 | 11.67° C | 79% | 1019.2 hPa | 0 mm | - | - | - |
| 1777637375 | 11.11° C | 81% | 1018.9 hPa | 0 mm | - | - | - |
| 1777635575 | 10.56° C | 87% | 1018.4 hPa | 0 mm | - | - | - |
| 1777634675 | 11.11° C | 84% | 1018.3 hPa | 0 mm | - | - | - |
| 1777633775 | 11.11° C | 83% | 1018.2 hPa | 0 mm | - | - | - |
| 1777632875 | 11.67° C | 82% | 1017.8 hPa | 0 mm | - | - | - |
| 1777631975 | 11.67° C | 82% | 1018 hPa | 0 mm | - | - | - |
| 1777630175 | 11.67° C | 84% | 1017.6 hPa | 0 mm | - | - | - |
| 1777629274 | 11.67° C | 83% | 1017.8 hPa | 0 mm | - | - | - |
| 1777628375 | 11.67° C | 82% | 1017.9 hPa | 0 mm | - | - | - |
| 1777626575 | 11.67° C | 83% | 1017.5 hPa | 0 mm | - | - | - |
| 1777625675 | 11.67° C | 83% | 1017.4 hPa | 0 mm | - | - | - |
| 1777624775 | 11.67° C | 84% | 1017.4 hPa | 0 mm | - | - | - |
| 1777623875 | 11.67° C | 84% | 1017.7 hPa | 0 mm | - | - | - |
* Rain latest hour (hover to see other rain measurements)
** Current wind speed in m/s (hover to see current wind gust speed)